sensor_id;sensor_type;location;lat;lon;timestamp;temperature;humidity
26081;DHT22;13991;51.174;4.438;2022-07-04T00:01:05;17.90;99.90
26081;DHT22;13991;51.174;4.438;2022-07-04T00:03:30;17.80;99.90
26081;DHT22;13991;51.174;4.438;2022-07-04T00:05:56;17.90;99.90
26081;DHT22;13991;51.174;4.438;2022-07-04T00:08:22;17.80;99.90
26081;DHT22;13991;51.174;4.438;2022-07-04T00:10:47;17.80;99.90
26081;DHT22;13991;51.174;4.438;2022-07-04T00:13:13;17.80;99.90
26081;DHT22;13991;51.174;4.438;2022-07-04T00:15:39;17.70;99.90
26081;DHT22;13991;51.174;4.438;2022-07-04T00:18:05;17.60;99.90
26081;DHT22;13991;51.174;4.438;2022-07-04T00:20:30;17.60;99.90
26081;DHT22;13991;51.174;4.438;2022-07-04T00:22:56;17.60;99.90
26081;DHT22;13991;51.174;4.438;2022-07-04T00:25:22;17.60;99.90
26081;DHT22;13991;51.174;4.438;2022-07-04T00:27:47;17.50;99.90
26081;DHT22;13991;51.174;4.438;2022-07-04T00:30:13;17.50;99.90
26081;DHT22;13991;51.174;4.438;2022-07-04T00:32:39;17.50;99.90
26081;DHT22;13991;51.174;4.438;2022-07-04T00:35:06;17.50;99.90
26081;DHT22;13991;51.174;4.438;2022-07-04T00:37:32;17.50;99.90
26081;DHT22;13991;51.174;4.438;2022-07-04T00:39:58;17.40;99.90
26081;DHT22;13991;51.174;4.438;2022-07-04T00:42:24;17.40;99.90
26081;DHT22;13991;51.174;4.438;2022-07-04T00:44:49;17.40;99.90
26081;DHT22;13991;51.174;4.438;2022-07-04T00:47:15;17.30;99.90
26081;DHT22;13991;51.174;4.438;2022-07-04T00:49:41;17.30;99.90
26081;DHT22;13991;51.174;4.438;2022-07-04T00:52:07;17.40;99.90
26081;DHT22;13991;51.174;4.438;2022-07-04T00:54:33;17.30;99.90
26081;DHT22;13991;51.174;4.438;2022-07-04T00:57:00;17.30;99.90
26081;DHT22;13991;51.174;4.438;2022-07-04T00:59:26;17.30;99.90
26081;DHT22;13991;51.174;4.438;2022-07-04T01:01:52;17.20;99.90
26081;DHT22;13991;51.174;4.438;2022-07-04T01:04:18;17.20;99.90
26081;DHT22;13991;51.174;4.438;2022-07-04T01:06:44;17.20;99.90
26081;DHT22;13991;51.174;4.438;2022-07-04T01:09:11;17.20;99.90
26081;DHT22;13991;51.174;4.438;2022-07-04T01:11:37;17.20;99.90
26081;DHT22;13991;51.174;4.438;2022-07-04T01:14:02;17.20;99.90
26081;DHT22;13991;51.174;4.438;2022-07-04T01:16:30;17.20;99.90
26081;DHT22;13991;51.174;4.438;2022-07-04T01:18:56;17.20;99.90
26081;DHT22;13991;51.174;4.438;2022-07-04T01:21:21;17.20;99.90
26081;DHT22;13991;51.174;4.438;2022-07-04T01:23:47;17.20;99.90
26081;DHT22;13991;51.174;4.438;2022-07-04T01:26:13;17.20;99.90
26081;DHT22;13991;51.174;4.438;2022-07-04T01:28:39;17.00;99.90
26081;DHT22;13991;51.174;4.438;2022-07-04T01:31:06;17.00;99.90
26081;DHT22;13991;51.174;4.438;2022-07-04T01:33:32;16.90;99.90
26081;DHT22;13991;51.174;4.438;2022-07-04T01:35:58;16.90;99.90
26081;DHT22;13991;51.174;4.438;2022-07-04T01:38:23;16.90;99.90
26081;DHT22;13991;51.174;4.438;2022-07-04T01:40:49;16.90;99.90
26081;DHT22;13991;51.174;4.438;2022-07-04T01:43:15;16.90;99.90
26081;DHT22;13991;51.174;4.438;2022-07-04T01:45:41;16.80;99.90
26081;DHT22;13991;51.174;4.438;2022-07-04T01:48:07;16.80;99.90
26081;DHT22;13991;51.174;4.438;2022-07-04T01:50:34;16.80;99.90
26081;DHT22;13991;51.174;4.438;2022-07-04T01:53:01;16.90;99.90
26081;DHT22;13991;51.174;4.438;2022-07-04T01:55:27;16.90;99.90
26081;DHT22;13991;51.174;4.438;2022-07-04T01:57:53;16.90;99.90
26081;DHT22;13991;51.174;4.438;2022-07-04T02:00:18;16.80;99.90
26081;DHT22;13991;51.174;4.438;2022-07-04T02:03:03;16.90;99.90
26081;DHT22;13991;51.174;4.438;2022-07-04T02:05:28;16.80;99.90
26081;DHT22;13991;51.174;4.438;2022-07-04T02:07:54;16.70;99.90
26081;DHT22;13991;51.174;4.438;2022-07-04T02:10:20;16.60;99.90
26081;DHT22;13991;51.174;4.438;2022-07-04T02:12:46;16.70;99.90
26081;DHT22;13991;51.174;4.438;2022-07-04T02:15:35;16.70;99.90
26081;DHT22;13991;51.174;4.438;2022-07-04T02:18:02;16.70;99.90
26081;DHT22;13991;51.174;4.438;2022-07-04T02:20:29;16.70;99.90
26081;DHT22;13991;51.174;4.438;2022-07-04T02:22:55;16.60;99.90
26081;DHT22;13991;51.174;4.438;2022-07-04T02:25:21;16.70;99.90
26081;DHT22;13991;51.174;4.438;2022-07-04T02:27:46;16.60;99.90
26081;DHT22;13991;51.174;4.438;2022-07-04T02:30:12;16.50;99.90
26081;DHT22;13991;51.174;4.438;2022-07-04T02:32:39;16.40;99.90
26081;DHT22;13991;51.174;4.438;2022-07-04T02:35:05;16.40;99.90
26081;DHT22;13991;51.174;4.438;2022-07-04T02:37:31;16.30;99.90
26081;DHT22;13991;51.174;4.438;2022-07-04T02:39:57;16.30;99.90
26081;DHT22;13991;51.174;4.438;2022-07-04T02:42:23;16.40;99.90
26081;DHT22;13991;51.174;4.438;2022-07-04T02:44:49;16.40;99.90
26081;DHT22;13991;51.174;4.438;2022-07-04T02:47:15;16.40;99.90
26081;DHT22;13991;51.174;4.438;2022-07-04T02:49:41;16.40;99.90
26081;DHT22;13991;51.174;4.438;2022-07-04T02:52:07;16.40;99.90
26081;DHT22;13991;51.174;4.438;2022-07-04T02:54:33;16.40;99.90
26081;DHT22;13991;51.174;4.438;2022-07-04T02:56:59;16.40;99.90
26081;DHT22;13991;51.174;4.438;2022-07-04T02:59:24;16.40;99.90
26081;DHT22;13991;51.174;4.438;2022-07-04T03:01:50;16.30;99.90
26081;DHT22;13991;51.174;4.438;2022-07-04T03:04:16;16.30;99.90
26081;DHT22;13991;51.174;4.438;2022-07-04T03:06:42;16.30;99.90
26081;DHT22;13991;51.174;4.438;2022-07-04T03:09:08;16.20;99.90
26081;DHT22;13991;51.174;4.438;2022-07-04T03:11:34;16.20;99.90
26081;DHT22;13991;51.174;4.438;2022-07-04T03:14:00;16.20;99.90
26081;DHT22;13991;51.174;4.438;2022-07-04T03:16:26;16.30;99.90
26081;DHT22;13991;51.174;4.438;2022-07-04T03:18:51;16.30;99.90
26081;DHT22;13991;51.174;4.438;2022-07-04T03:21:17;16.20;99.90
26081;DHT22;13991;51.174;4.438;2022-07-04T03:23:42;16.10;99.90
26081;DHT22;13991;51.174;4.438;2022-07-04T03:26:08;16.20;99.90
26081;DHT22;13991;51.174;4.438;2022-07-04T03:28:34;16.10;99.90
26081;DHT22;13991;51.174;4.438;2022-07-04T03:31:00;16.20;99.90
26081;DHT22;13991;51.174;4.438;2022-07-04T03:33:26;16.20;99.90
26081;DHT22;13991;51.174;4.438;2022-07-04T03:35:52;16.20;99.90
26081;DHT22;13991;51.174;4.438;2022-07-04T03:38:17;16.20;99.90
26081;DHT22;13991;51.174;4.438;2022-07-04T03:40:43;16.10;99.90
26081;DHT22;13991;51.174;4.438;2022-07-04T03:43:09;15.90;99.90
26081;DHT22;13991;51.174;4.438;2022-07-04T03:45:34;15.70;99.90
26081;DHT22;13991;51.174;4.438;2022-07-04T03:48:00;15.70;99.90
26081;DHT22;13991;51.174;4.438;2022-07-04T03:50:29;15.80;99.90
26081;DHT22;13991;51.174;4.438;2022-07-04T03:52:55;15.70;99.90
26081;DHT22;13991;51.174;4.438;2022-07-04T03:55:21;15.90;99.90
26081;DHT22;13991;51.174;4.438;2022-07-04T03:57:46;15.90;99.90
26081;DHT22;13991;51.174;4.438;2022-07-04T04:00:12;15.80;99.90
26081;DHT22;13991;51.174;4.438;2022-07-04T04:02:39;15.80;99.90
26081;DHT22;13991;51.174;4.438;2022-07-04T04:05:05;15.80;99.90
26081;DHT22;13991;51.174;4.438;2022-07-04T04:07:50;15.80;99.90
26081;DHT22;13991;51.174;4.438;2022-07-04T04:10:15;15.80;99.90
26081;DHT22;13991;51.174;4.438;2022-07-04T04:12:41;15.90;99.90
26081;DHT22;13991;51.174;4.438;2022-07-04T04:15:07;16.00;99.90
26081;DHT22;13991;51.174;4.438;2022-07-04T04:17:33;16.00;99.90
26081;DHT22;13991;51.174;4.438;2022-07-04T04:19:59;16.10;99.90
26081;DHT22;13991;51.174;4.438;2022-07-04T04:22:24;16.00;99.90
26081;DHT22;13991;51.174;4.438;2022-07-04T04:24:52;15.90;99.90
26081;DHT22;13991;51.174;4.438;2022-07-04T04:27:18;15.80;99.90
26081;DHT22;13991;51.174;4.438;2022-07-04T04:29:43;15.90;99.90
26081;DHT22;13991;51.174;4.438;2022-07-04T04:32:09;16.00;99.90
26081;DHT22;13991;51.174;4.438;2022-07-04T04:34:35;16.10;99.90
26081;DHT22;13991;51.174;4.438;2022-07-04T04:37:00;16.00;99.90
26081;DHT22;13991;51.174;4.438;2022-07-04T04:39:26;15.90;99.90
26081;DHT22;13991;51.174;4.438;2022-07-04T04:41:52;15.90;99.90
26081;DHT22;13991;51.174;4.438;2022-07-04T04:44:18;15.90;99.90
26081;DHT22;13991;51.174;4.438;2022-07-04T04:46:45;16.00;99.90
26081;DHT22;13991;51.174;4.438;2022-07-04T04:49:11;16.20;99.90
26081;DHT22;13991;51.174;4.438;2022-07-04T04:51:37;16.40;99.90
26081;DHT22;13991;51.174;4.438;2022-07-04T04:54:02;16.40;99.90
26081;DHT22;13991;51.174;4.438;2022-07-04T04:56:28;16.40;99.90
26081;DHT22;13991;51.174;4.438;2022-07-04T04:58:54;16.60;99.90
26081;DHT22;13991;51.174;4.438;2022-07-04T05:01:19;16.60;99.90
26081;DHT22;13991;51.174;4.438;2022-07-04T05:03:45;16.60;99.90
26081;DHT22;13991;51.174;4.438;2022-07-04T05:06:11;16.70;99.90
26081;DHT22;13991;51.174;4.438;2022-07-04T05:08:36;16.70;99.90
26081;DHT22;13991;51.174;4.438;2022-07-04T05:11:02;16.60;99.90
26081;DHT22;13991;51.174;4.438;2022-07-04T05:13:28;16.60;99.90
26081;DHT22;13991;51.174;4.438;2022-07-04T05:15:54;16.60;99.90
26081;DHT22;13991;51.174;4.438;2022-07-04T05:18:20;16.70;99.90
26081;DHT22;13991;51.174;4.438;2022-07-04T05:20:46;16.90;99.90
26081;DHT22;13991;51.174;4.438;2022-07-04T05:23:11;17.20;99.90
26081;DHT22;13991;51.174;4.438;2022-07-04T05:25:37;17.30;99.90
26081;DHT22;13991;51.174;4.438;2022-07-04T05:28:03;17.30;99.90
26081;DHT22;13991;51.174;4.438;2022-07-04T05:30:28;17.30;99.90
26081;DHT22;13991;51.174;4.438;2022-07-04T05:32:54;17.30;99.90
26081;DHT22;13991;51.174;4.438;2022-07-04T05:35:20;17.30;99.90
26081;DHT22;13991;51.174;4.438;2022-07-04T05:37:45;17.30;99.90
26081;DHT22;13991;51.174;4.438;2022-07-04T05:40:12;17.40;99.90
26081;DHT22;13991;51.174;4.438;2022-07-04T05:42:37;17.40;99.90
26081;DHT22;13991;51.174;4.438;2022-07-04T05:45:03;17.40;99.90
26081;DHT22;13991;51.174;4.438;2022-07-04T05:47:29;17.50;99.90
26081;DHT22;13991;51.174;4.438;2022-07-04T05:49:55;17.50;99.90
26081;DHT22;13991;51.174;4.438;2022-07-04T05:52:21;17.60;99.90
26081;DHT22;13991;51.174;4.438;2022-07-04T05:54:49;17.50;99.90
26081;DHT22;13991;51.174;4.438;2022-07-04T05:57:15;17.50;99.90
26081;DHT22;13991;51.174;4.438;2022-07-04T05:59:41;17.20;99.90
26081;DHT22;13991;51.174;4.438;2022-07-04T06:02:07;17.30;99.90
26081;DHT22;13991;51.174;4.438;2022-07-04T06:04:32;17.30;99.90
26081;DHT22;13991;51.174;4.438;2022-07-04T06:06:58;17.40;99.90
26081;DHT22;13991;51.174;4.438;2022-07-04T06:09:24;17.50;99.90
26081;DHT22;13991;51.174;4.438;2022-07-04T06:11:49;17.50;99.90
26081;DHT22;13991;51.174;4.438;2022-07-04T06:14:15;17.50;99.90
26081;DHT22;13991;51.174;4.438;2022-07-04T06:16:41;17.60;99.90
26081;DHT22;13991;51.174;4.438;2022-07-04T06:19:06;17.70;99.90
26081;DHT22;13991;51.174;4.438;2022-07-04T06:21:32;17.90;99.90
26081;DHT22;13991;51.174;4.438;2022-07-04T06:23:58;18.00;99.90
26081;DHT22;13991;51.174;4.438;2022-07-04T06:26:24;18.10;99.90
26081;DHT22;13991;51.174;4.438;2022-07-04T06:28:49;18.20;99.90
26081;DHT22;13991;51.174;4.438;2022-07-04T06:31:15;18.30;99.90
26081;DHT22;13991;51.174;4.438;2022-07-04T06:33:41;18.40;99.90
26081;DHT22;13991;51.174;4.438;2022-07-04T06:36:25;18.30;99.90
26081;DHT22;13991;51.174;4.438;2022-07-04T06:38:51;18.40;99.90
26081;DHT22;13991;51.174;4.438;2022-07-04T06:41:17;18.50;99.90
26081;DHT22;13991;51.174;4.438;2022-07-04T06:43:42;18.50;99.90
26081;DHT22;13991;51.174;4.438;2022-07-04T06:46:09;18.60;99.90
26081;DHT22;13991;51.174;4.438;2022-07-04T06:48:35;18.50;99.90
26081;DHT22;13991;51.174;4.438;2022-07-04T06:51:01;18.40;99.90
26081;DHT22;13991;51.174;4.438;2022-07-04T06:53:27;18.60;99.90
26081;DHT22;13991;51.174;4.438;2022-07-04T06:55:53;18.60;99.90
26081;DHT22;13991;51.174;4.438;2022-07-04T06:58:18;18.80;99.90
26081;DHT22;13991;51.174;4.438;2022-07-04T07:00:44;18.80;99.90
26081;DHT22;13991;51.174;4.438;2022-07-04T07:03:10;18.90;99.90
26081;DHT22;13991;51.174;4.438;2022-07-04T07:05:36;18.60;99.90
26081;DHT22;13991;51.174;4.438;2022-07-04T07:08:05;18.50;99.90
26081;DHT22;13991;51.174;4.438;2022-07-04T07:10:31;18.70;99.90
26081;DHT22;13991;51.174;4.438;2022-07-04T07:12:58;18.60;99.90
26081;DHT22;13991;51.174;4.438;2022-07-04T07:15:24;18.80;99.90
26081;DHT22;13991;51.174;4.438;2022-07-04T07:17:50;18.80;99.90
26081;DHT22;13991;51.174;4.438;2022-07-04T07:20:16;18.80;99.90
26081;DHT22;13991;51.174;4.438;2022-07-04T07:22:43;19.00;99.90
26081;DHT22;13991;51.174;4.438;2022-07-04T07:25:10;19.10;99.90
26081;DHT22;13991;51.174;4.438;2022-07-04T07:27:36;19.40;99.90
26081;DHT22;13991;51.174;4.438;2022-07-04T07:30:03;19.50;99.90
26081;DHT22;13991;51.174;4.438;2022-07-04T07:32:29;19.40;99.90
26081;DHT22;13991;51.174;4.438;2022-07-04T07:34:55;19.40;99.90
26081;DHT22;13991;51.174;4.438;2022-07-04T07:37:20;19.50;99.90
26081;DHT22;13991;51.174;4.438;2022-07-04T07:39:48;19.60;99.90
26081;DHT22;13991;51.174;4.438;2022-07-04T07:42:14;19.60;99.90
26081;DHT22;13991;51.174;4.438;2022-07-04T07:44:40;19.70;99.90
26081;DHT22;13991;51.174;4.438;2022-07-04T07:47:06;19.90;99.90
26081;DHT22;13991;51.174;4.438;2022-07-04T07:49:32;20.00;99.90
26081;DHT22;13991;51.174;4.438;2022-07-04T07:51:57;20.10;99.90
26081;DHT22;13991;51.174;4.438;2022-07-04T07:54:23;20.20;99.90
26081;DHT22;13991;51.174;4.438;2022-07-04T07:56:48;20.30;99.90
26081;DHT22;13991;51.174;4.438;2022-07-04T07:59:14;20.30;99.90
26081;DHT22;13991;51.174;4.438;2022-07-04T08:01:40;20.30;99.90
26081;DHT22;13991;51.174;4.438;2022-07-04T08:04:05;20.40;99.90
26081;DHT22;13991;51.174;4.438;2022-07-04T08:06:50;20.30;99.90
26081;DHT22;13991;51.174;4.438;2022-07-04T08:09:16;20.20;99.90
26081;DHT22;13991;51.174;4.438;2022-07-04T08:11:42;20.30;99.90
26081;DHT22;13991;51.174;4.438;2022-07-04T08:14:07;20.40;99.90
26081;DHT22;13991;51.174;4.438;2022-07-04T08:16:34;20.50;99.90
26081;DHT22;13991;51.174;4.438;2022-07-04T08:19:00;20.60;99.90
26081;DHT22;13991;51.174;4.438;2022-07-04T08:21:26;20.70;99.90
26081;DHT22;13991;51.174;4.438;2022-07-04T08:23:52;20.70;99.90
26081;DHT22;13991;51.174;4.438;2022-07-04T08:26:18;20.50;99.90
26081;DHT22;13991;51.174;4.438;2022-07-04T08:28:44;20.60;99.90
26081;DHT22;13991;51.174;4.438;2022-07-04T08:31:10;20.40;99.90
26081;DHT22;13991;51.174;4.438;2022-07-04T08:33:36;20.20;99.90
26081;DHT22;13991;51.174;4.438;2022-07-04T08:36:03;20.20;99.90
26081;DHT22;13991;51.174;4.438;2022-07-04T08:38:29;20.30;99.90
26081;DHT22;13991;51.174;4.438;2022-07-04T08:40:59;20.00;99.90
26081;DHT22;13991;51.174;4.438;2022-07-04T08:43:27;20.20;99.90
26081;DHT22;13991;51.174;4.438;2022-07-04T08:45:59;20.40;99.90
26081;DHT22;13991;51.174;4.438;2022-07-04T08:48:26;20.60;99.90
26081;DHT22;13991;51.174;4.438;2022-07-04T08:51:19;21.00;99.90
26081;DHT22;13991;51.174;4.438;2022-07-04T08:53:53;21.30;99.90
26081;DHT22;13991;51.174;4.438;2022-07-04T08:56:21;21.20;99.90
26081;DHT22;13991;51.174;4.438;2022-07-04T08:59:06;21.40;99.90
26081;DHT22;13991;51.174;4.438;2022-07-04T09:01:33;21.20;99.90
26081;DHT22;13991;51.174;4.438;2022-07-04T09:04:01;21.30;99.90
26081;DHT22;13991;51.174;4.438;2022-07-04T09:06:27;21.50;99.90
26081;DHT22;13991;51.174;4.438;2022-07-04T09:08:55;21.80;99.90
26081;DHT22;13991;51.174;4.438;2022-07-04T09:11:21;21.90;99.90
26081;DHT22;13991;51.174;4.438;2022-07-04T09:13:47;21.90;99.90
26081;DHT22;13991;51.174;4.438;2022-07-04T09:16:14;22.00;99.90
26081;DHT22;13991;51.174;4.438;2022-07-04T09:18:39;22.10;99.90
26081;DHT22;13991;51.174;4.438;2022-07-04T09:21:07;21.80;99.90
26081;DHT22;13991;51.174;4.438;2022-07-04T09:23:36;21.70;99.90
26081;DHT22;13991;51.174;4.438;2022-07-04T09:26:19;21.80;99.90
26081;DHT22;13991;51.174;4.438;2022-07-04T09:28:52;21.80;99.90
26081;DHT22;13991;51.174;4.438;2022-07-04T09:31:21;21.80;99.90
26081;DHT22;13991;51.174;4.438;2022-07-04T09:34:07;21.70;99.90
26081;DHT22;13991;51.174;4.438;2022-07-04T09:36:35;22.00;99.90
26081;DHT22;13991;51.174;4.438;2022-07-04T09:39:15;22.30;99.90
26081;DHT22;13991;51.174;4.438;2022-07-04T09:42:00;22.30;99.90
26081;DHT22;13991;51.174;4.438;2022-07-04T09:47:26;22.60;99.90
26081;DHT22;13991;51.174;4.438;2022-07-04T09:49:59;22.40;99.90
26081;DHT22;13991;51.174;4.438;2022-07-04T09:52:25;22.30;99.90
26081;DHT22;13991;51.174;4.438;2022-07-04T09:54:57;22.30;99.90
26081;DHT22;13991;51.174;4.438;2022-07-04T09:57:23;22.40;99.90
26081;DHT22;13991;51.174;4.438;2022-07-04T09:59:49;22.20;99.90
26081;DHT22;13991;51.174;4.438;2022-07-04T10:02:14;22.10;99.90
26081;DHT22;13991;51.174;4.438;2022-07-04T10:04:42;22.50;99.90
26081;DHT22;13991;51.174;4.438;2022-07-04T10:07:08;22.60;99.90
26081;DHT22;13991;51.174;4.438;2022-07-04T10:09:33;22.70;99.90
26081;DHT22;13991;51.174;4.438;2022-07-04T10:11:59;23.00;99.90
26081;DHT22;13991;51.174;4.438;2022-07-04T10:14:25;23.00;99.90
26081;DHT22;13991;51.174;4.438;2022-07-04T10:16:51;23.00;99.90
26081;DHT22;13991;51.174;4.438;2022-07-04T10:19:17;23.00;99.90
26081;DHT22;13991;51.174;4.438;2022-07-04T10:21:43;23.20;99.90
26081;DHT22;13991;51.174;4.438;2022-07-04T10:24:10;22.90;99.90
26081;DHT22;13991;51.174;4.438;2022-07-04T10:26:36;22.60;99.90
26081;DHT22;13991;51.174;4.438;2022-07-04T10:29:02;22.60;99.90
26081;DHT22;13991;51.174;4.438;2022-07-04T10:31:29;22.80;99.90
26081;DHT22;13991;51.174;4.438;2022-07-04T10:33:57;23.30;99.90
26081;DHT22;13991;51.174;4.438;2022-07-04T10:36:25;23.60;99.90
26081;DHT22;13991;51.174;4.438;2022-07-04T10:39:00;23.60;99.90
26081;DHT22;13991;51.174;4.438;2022-07-04T10:41:28;23.30;99.90
26081;DHT22;13991;51.174;4.438;2022-07-04T10:44:04;23.00;99.90
26081;DHT22;13991;51.174;4.438;2022-07-04T10:46:53;23.00;99.90
26081;DHT22;13991;51.174;4.438;2022-07-04T10:49:24;22.80;99.90
26081;DHT22;13991;51.174;4.438;2022-07-04T10:52:12;22.60;99.90
26081;DHT22;13991;51.174;4.438;2022-07-04T10:54:40;22.70;99.90
26081;DHT22;13991;51.174;4.438;2022-07-04T10:57:10;22.60;99.90
26081;DHT22;13991;51.174;4.438;2022-07-04T10:59:36;22.60;99.90
26081;DHT22;13991;51.174;4.438;2022-07-04T11:04:45;22.50;99.90
26081;DHT22;13991;51.174;4.438;2022-07-04T11:07:19;22.40;99.90
26081;DHT22;13991;51.174;4.438;2022-07-04T11:09:45;22.50;99.90
26081;DHT22;13991;51.174;4.438;2022-07-04T11:12:11;22.40;99.90
26081;DHT22;13991;51.174;4.438;2022-07-04T11:14:46;22.30;99.90
26081;DHT22;13991;51.174;4.438;2022-07-04T11:17:59;22.20;99.90
26081;DHT22;13991;51.174;4.438;2022-07-04T11:20:00;22.30;99.90
26081;DHT22;13991;51.174;4.438;2022-07-04T11:22:26;22.90;99.90
26081;DHT22;13991;51.174;4.438;2022-07-04T11:24:52;23.10;99.90
26081;DHT22;13991;51.174;4.438;2022-07-04T11:27:21;23.30;99.90
26081;DHT22;13991;51.174;4.438;2022-07-04T11:29:54;23.60;99.90
26081;DHT22;13991;51.174;4.438;2022-07-04T11:32:21;23.40;99.90
26081;DHT22;13991;51.174;4.438;2022-07-04T11:34:47;23.60;99.50
26081;DHT22;13991;51.174;4.438;2022-07-04T11:37:14;24.10;99.90
26081;DHT22;13991;51.174;4.438;2022-07-04T11:39:40;24.10;97.50
26081;DHT22;13991;51.174;4.438;2022-07-04T11:42:06;24.10;97.60
26081;DHT22;13991;51.174;4.438;2022-07-04T11:44:50;24.30;97.90
26081;DHT22;13991;51.174;4.438;2022-07-04T11:50:07;24.30;96.00
26081;DHT22;13991;51.174;4.438;2022-07-04T11:52:40;24.40;95.50
26081;DHT22;13991;51.174;4.438;2022-07-04T11:55:14;24.20;95.00
26081;DHT22;13991;51.174;4.438;2022-07-04T11:57:42;24.30;95.30
26081;DHT22;13991;51.174;4.438;2022-07-04T12:00:11;24.60;94.70
26081;DHT22;13991;51.174;4.438;2022-07-04T12:02:38;24.90;92.70
26081;DHT22;13991;51.174;4.438;2022-07-04T12:05:06;25.00;92.90
26081;DHT22;13991;51.174;4.438;2022-07-04T12:07:36;25.10;93.50
26081;DHT22;13991;51.174;4.438;2022-07-04T12:10:29;25.40;92.70
26081;DHT22;13991;51.174;4.438;2022-07-04T12:12:56;25.40;94.30
26081;DHT22;13991;51.174;4.438;2022-07-04T12:15:23;25.60;92.20
26081;DHT22;13991;51.174;4.438;2022-07-04T12:17:54;25.50;91.10
26081;DHT22;13991;51.174;4.438;2022-07-04T12:20:24;25.30;92.60
26081;DHT22;13991;51.174;4.438;2022-07-04T12:23:01;25.10;92.20
26081;DHT22;13991;51.174;4.438;2022-07-04T12:36:11;24.80;90.20
26081;DHT22;13991;51.174;4.438;2022-07-04T12:44:50;23.60;91.50
26081;DHT22;13991;51.174;4.438;2022-07-04T12:47:17;23.60;92.30
26081;DHT22;13991;51.174;4.438;2022-07-04T12:49:44;23.80;92.00
26081;DHT22;13991;51.174;4.438;2022-07-04T12:52:16;24.10;92.00
26081;DHT22;13991;51.174;4.438;2022-07-04T12:54:42;24.10;90.80
26081;DHT22;13991;51.174;4.438;2022-07-04T12:59:39;23.80;92.00
26081;DHT22;13991;51.174;4.438;2022-07-04T13:02:06;23.90;93.30
26081;DHT22;13991;51.174;4.438;2022-07-04T13:04:32;24.00;94.60
26081;DHT22;13991;51.174;4.438;2022-07-04T13:07:16;23.80;94.90
26081;DHT22;13991;51.174;4.438;2022-07-04T13:09:43;23.60;94.80
26081;DHT22;13991;51.174;4.438;2022-07-04T13:12:10;23.50;95.40
26081;DHT22;13991;51.174;4.438;2022-07-04T13:14:51;23.40;95.10
26081;DHT22;13991;51.174;4.438;2022-07-04T13:17:17;23.40;94.90
26081;DHT22;13991;51.174;4.438;2022-07-04T13:19:43;23.60;95.20
26081;DHT22;13991;51.174;4.438;2022-07-04T13:22:09;23.70;95.60
26081;DHT22;13991;51.174;4.438;2022-07-04T13:24:35;23.80;95.30
26081;DHT22;13991;51.174;4.438;2022-07-04T13:27:01;24.00;95.00
26081;DHT22;13991;51.174;4.438;2022-07-04T13:29:27;23.90;94.10
26081;DHT22;13991;51.174;4.438;2022-07-04T13:31:53;24.00;94.10
26081;DHT22;13991;51.174;4.438;2022-07-04T13:34:19;24.20;94.30
26081;DHT22;13991;51.174;4.438;2022-07-04T13:36:44;24.50;93.30
26081;DHT22;13991;51.174;4.438;2022-07-04T13:39:11;24.50;93.60
26081;DHT22;13991;51.174;4.438;2022-07-04T13:41:37;24.60;93.20
26081;DHT22;13991;51.174;4.438;2022-07-04T13:44:04;24.90;93.50
26081;DHT22;13991;51.174;4.438;2022-07-04T13:46:31;25.20;93.20
26081;DHT22;13991;51.174;4.438;2022-07-04T13:49:03;25.50;92.10
26081;DHT22;13991;51.174;4.438;2022-07-04T13:51:29;25.50;91.70
26081;DHT22;13991;51.174;4.438;2022-07-04T13:53:55;25.60;90.90
26081;DHT22;13991;51.174;4.438;2022-07-04T13:56:21;25.40;90.90
26081;DHT22;13991;51.174;4.438;2022-07-04T13:58:48;25.30;90.40
26081;DHT22;13991;51.174;4.438;2022-07-04T14:01:14;25.40;91.00
26081;DHT22;13991;51.174;4.438;2022-07-04T14:03:43;25.50;91.10
26081;DHT22;13991;51.174;4.438;2022-07-04T14:06:09;25.60;90.80
26081;DHT22;13991;51.174;4.438;2022-07-04T14:08:35;25.10;91.10
26081;DHT22;13991;51.174;4.438;2022-07-04T14:11:01;25.00;91.20
26081;DHT22;13991;51.174;4.438;2022-07-04T14:13:27;25.10;91.40
26081;DHT22;13991;51.174;4.438;2022-07-04T14:15:53;25.50;90.40
26081;DHT22;13991;51.174;4.438;2022-07-04T14:18:20;25.80;90.20
26081;DHT22;13991;51.174;4.438;2022-07-04T14:20:45;25.80;89.90
26081;DHT22;13991;51.174;4.438;2022-07-04T14:23:11;25.90;89.60
26081;DHT22;13991;51.174;4.438;2022-07-04T14:26:01;26.00;90.50
26081;DHT22;13991;51.174;4.438;2022-07-04T14:28:29;25.70;89.00
26081;DHT22;13991;51.174;4.438;2022-07-04T14:30:56;25.50;89.10
26081;DHT22;13991;51.174;4.438;2022-07-04T14:33:21;25.60;90.20
26081;DHT22;13991;51.174;4.438;2022-07-04T14:35:47;25.60;90.00
26081;DHT22;13991;51.174;4.438;2022-07-04T14:38:13;25.70;90.00
26081;DHT22;13991;51.174;4.438;2022-07-04T14:40:38;25.30;88.80
26081;DHT22;13991;51.174;4.438;2022-07-04T14:43:05;24.90;89.40
26081;DHT22;13991;51.174;4.438;2022-07-04T14:45:30;24.90;89.40
26081;DHT22;13991;51.174;4.438;2022-07-04T14:47:56;24.70;90.10
26081;DHT22;13991;51.174;4.438;2022-07-04T14:50:22;24.80;90.40
26081;DHT22;13991;51.174;4.438;2022-07-04T14:52:49;24.90;90.90
26081;DHT22;13991;51.174;4.438;2022-07-04T14:55:15;24.80;90.20
26081;DHT22;13991;51.174;4.438;2022-07-04T14:57:41;24.70;89.50
26081;DHT22;13991;51.174;4.438;2022-07-04T15:00:08;25.00;88.70
26081;DHT22;13991;51.174;4.438;2022-07-04T15:02:41;25.00;90.10
26081;DHT22;13991;51.174;4.438;2022-07-04T15:05:07;25.20;88.10
26081;DHT22;13991;51.174;4.438;2022-07-04T15:07:33;25.20;88.60
26081;DHT22;13991;51.174;4.438;2022-07-04T15:10:00;25.20;88.80
26081;DHT22;13991;51.174;4.438;2022-07-04T15:12:26;24.90;90.10
26081;DHT22;13991;51.174;4.438;2022-07-04T15:14:51;24.70;89.40
26081;DHT22;13991;51.174;4.438;2022-07-04T15:17:17;24.70;90.20
26081;DHT22;13991;51.174;4.438;2022-07-04T15:19:43;24.80;90.60
26081;DHT22;13991;51.174;4.438;2022-07-04T15:22:27;25.10;90.90
26081;DHT22;13991;51.174;4.438;2022-07-04T15:25:11;25.40;90.50
26081;DHT22;13991;51.174;4.438;2022-07-04T15:27:37;25.10;88.00
26081;DHT22;13991;51.174;4.438;2022-07-04T15:30:03;25.00;88.60
26081;DHT22;13991;51.174;4.438;2022-07-04T15:32:29;25.00;90.30
26081;DHT22;13991;51.174;4.438;2022-07-04T15:34:55;24.70;91.60
26081;DHT22;13991;51.174;4.438;2022-07-04T15:37:20;24.80;92.30
26081;DHT22;13991;51.174;4.438;2022-07-04T15:39:46;24.90;91.70
26081;DHT22;13991;51.174;4.438;2022-07-04T15:42:12;24.70;91.50
26081;DHT22;13991;51.174;4.438;2022-07-04T15:44:37;25.00;91.70
26081;DHT22;13991;51.174;4.438;2022-07-04T15:47:03;25.30;91.10
26081;DHT22;13991;51.174;4.438;2022-07-04T15:49:36;25.50;90.70
26081;DHT22;13991;51.174;4.438;2022-07-04T15:52:05;25.50;90.40
26081;DHT22;13991;51.174;4.438;2022-07-04T15:54:31;25.70;89.00
26081;DHT22;13991;51.174;4.438;2022-07-04T15:56:58;25.70;90.30
26081;DHT22;13991;51.174;4.438;2022-07-04T15:59:24;25.50;90.60